createdAt,value
2023-03-11T00:00:56.810Z,13.90
2023-03-11T00:03:24.837Z,14.00
2023-03-11T00:05:53.873Z,14.30
2023-03-11T00:08:24.276Z,14.70
2023-03-11T00:10:55.132Z,14.80
2023-03-11T00:13:23.161Z,14.90
2023-03-11T00:15:55.953Z,14.90
2023-03-11T00:18:28.095Z,14.60
2023-03-11T00:20:56.699Z,14.50
2023-03-11T00:23:26.045Z,14.70
2023-03-11T00:25:53.556Z,14.80
2023-03-11T00:28:25.282Z,14.70
2023-03-11T00:30:52.676Z,14.60
2023-03-11T00:33:20.596Z,14.80
2023-03-11T00:35:48.063Z,14.90
2023-03-11T00:38:16.768Z,14.80
2023-03-11T00:40:46.640Z,14.80
2023-03-11T00:43:14.662Z,14.70
2023-03-11T00:45:42.329Z,14.60
2023-03-11T00:48:09.601Z,14.90
2023-03-11T00:50:37.745Z,14.80
2023-03-11T00:53:06.245Z,14.90
2023-03-11T00:55:35.159Z,15.00
2023-03-11T00:58:07.201Z,14.90
2023-03-11T01:00:47.474Z,14.90
2023-03-11T01:03:14.864Z,14.80
2023-03-11T01:05:42.167Z,14.40
2023-03-11T01:08:09.553Z,14.00
2023-03-11T01:10:37.275Z,14.20
2023-03-11T01:13:06.189Z,14.30
2023-03-11T01:15:36.212Z,13.80
2023-03-11T01:18:04.804Z,14.00
2023-03-11T01:20:34.533Z,13.70
2023-03-11T01:23:02.081Z,13.60
2023-03-11T01:25:29.477Z,13.60
2023-03-11T01:27:59.104Z,13.80
2023-03-11T01:30:28.370Z,13.60
2023-03-11T01:32:57.788Z,13.50
2023-03-11T01:35:27.490Z,13.80
2023-03-11T01:37:55.369Z,14.00
2023-03-11T01:40:38.733Z,14.00
2023-03-11T01:43:38.869Z,13.70
2023-03-11T01:46:17.124Z,13.90
2023-03-11T01:48:50.694Z,14.10
2023-03-11T01:51:25.961Z,14.40
2023-03-11T01:53:54.935Z,14.30
2023-03-11T01:56:23.731Z,14.20
2023-03-11T01:58:53.772Z,14.30
2023-03-11T02:01:22.753Z,14.40
2023-03-11T02:03:50.934Z,14.50
2023-03-11T02:06:22.892Z,14.00
2023-03-11T02:08:51.338Z,13.60
2023-03-11T02:11:26.351Z,13.60
2023-03-11T02:13:57.129Z,13.60
2023-03-11T02:16:25.915Z,13.40
2023-03-11T02:18:53.520Z,13.10
2023-03-11T02:21:26.953Z,12.90
2023-03-11T02:24:17.528Z,13.00
2023-03-11T02:27:05.537Z,13.10
2023-03-11T02:29:33.983Z,13.30
2023-03-11T02:32:06.199Z,13.60
2023-03-11T02:34:36.993Z,13.10
2023-03-11T02:37:07.365Z,12.90
2023-03-11T02:39:36.003Z,12.80
2023-03-11T02:42:26.433Z,13.10
2023-03-11T02:45:02.738Z,13.50
2023-03-11T02:47:31.090Z,13.00
2023-03-11T02:49:58.530Z,12.70
2023-03-11T02:52:27.854Z,12.60
2023-03-11T02:54:55.971Z,13.10
2023-03-11T02:57:23.419Z,13.00
2023-03-11T02:59:50.812Z,12.90
2023-03-11T03:02:18.618Z,12.80
2023-03-11T03:04:46.055Z,12.70
2023-03-11T03:07:13.377Z,12.60
2023-03-11T03:09:40.778Z,12.40
2023-03-11T03:12:08.397Z,12.40
2023-03-11T03:14:36.956Z,12.30
2023-03-11T03:17:04.641Z,12.20
2023-03-11T03:19:32.044Z,12.20
2023-03-11T03:21:59.775Z,12.20
2023-03-11T03:24:27.182Z,12.10
2023-03-11T03:26:54.660Z,12.30
2023-03-11T03:29:22.077Z,12.50
2023-03-11T03:31:50.238Z,12.20
2023-03-11T03:34:17.687Z,12.10
2023-03-11T03:36:45.169Z,12.10
2023-03-11T03:39:12.814Z,12.40
2023-03-11T03:41:40.207Z,12.30
2023-03-11T03:44:08.718Z,12.20
2023-03-11T03:46:38.520Z,12.20
2023-03-11T03:49:08.089Z,12.10
2023-03-11T03:51:36.004Z,12.20
2023-03-11T03:54:15.405Z,12.20
2023-03-11T03:56:43.424Z,12.10
2023-03-11T03:59:10.859Z,12.50
2023-03-11T04:01:42.510Z,12.30
2023-03-11T04:04:10.176Z,11.90
2023-03-11T04:06:37.608Z,12.10
2023-03-11T04:09:07.501Z,12.00
2023-03-11T04:11:35.819Z,11.90
2023-03-11T04:14:05.491Z,12.00
2023-03-11T04:16:36.126Z,11.70
2023-03-11T04:19:10.584Z,11.70
2023-03-11T04:21:38.223Z,11.80
2023-03-11T04:24:06.062Z,11.80
2023-03-11T04:26:36.685Z,11.80
2023-03-11T04:29:05.828Z,11.60
2023-03-11T04:31:39.320Z,11.50
2023-03-11T04:34:08.001Z,11.30
2023-03-11T04:36:36.948Z,11.40
2023-03-11T04:39:05.137Z,11.40
2023-03-11T04:41:37.668Z,11.40
2023-03-11T04:44:08.207Z,11.60
2023-03-11T04:46:35.596Z,11.70
2023-03-11T04:49:05.536Z,11.80
2023-03-11T04:51:32.928Z,11.80
2023-03-11T04:54:00.259Z,11.80
2023-03-11T04:56:29.761Z,11.80
2023-03-11T04:58:58.197Z,11.80
2023-03-11T05:01:26.699Z,11.50
2023-03-11T05:03:55.186Z,11.60
2023-03-11T05:06:22.639Z,11.40
2023-03-11T05:08:49.982Z,11.30
2023-03-11T05:11:17.388Z,11.40
2023-03-11T05:13:47.278Z,11.50
2023-03-11T05:16:15.212Z,11.70
2023-03-11T05:18:42.559Z,11.60
2023-03-11T05:21:12.502Z,11.70
2023-03-11T05:23:40.269Z,11.70
2023-03-11T05:26:08.080Z,11.60
2023-03-11T05:28:35.914Z,11.80
2023-03-11T05:31:07.370Z,11.80
2023-03-11T05:33:35.841Z,11.70
2023-03-11T05:36:10.121Z,11.70
2023-03-11T05:38:40.359Z,11.80
2023-03-11T05:41:08.027Z,11.70
2023-03-11T05:43:36.643Z,11.60
2023-03-11T05:46:04.584Z,11.60
2023-03-11T05:48:32.745Z,11.70
2023-03-11T05:51:00.214Z,11.50
2023-03-11T05:53:27.885Z,11.30
2023-03-11T05:56:00.051Z,11.40
2023-03-11T05:58:29.609Z,11.50
2023-03-11T06:00:57.581Z,11.40
2023-03-11T06:03:25.060Z,11.40
2023-03-11T06:05:53.132Z,11.30
2023-03-11T06:08:21.950Z,11.40
2023-03-11T06:10:49.358Z,11.50
2023-03-11T06:13:18.689Z,11.50
2023-03-11T06:15:51.972Z,11.50
2023-03-11T06:18:21.006Z,11.50
2023-03-11T06:20:48.920Z,11.30
2023-03-11T06:23:16.956Z,11.30
2023-03-11T06:25:44.305Z,11.30
2023-03-11T06:28:12.096Z,11.20
2023-03-11T06:30:40.204Z,11.30
2023-03-11T06:33:15.076Z,11.10
2023-03-11T06:35:43.233Z,11.00
2023-03-11T06:38:10.551Z,11.40
2023-03-11T06:40:38.336Z,12.00
2023-03-11T06:43:05.837Z,12.80
2023-03-11T06:45:36.399Z,13.30
2023-03-11T06:48:03.897Z,13.90
2023-03-11T06:50:32.310Z,13.20
2023-03-11T06:53:03.030Z,14.00
2023-03-11T06:55:31.871Z,14.20
2023-03-11T06:58:00.263Z,14.20
2023-03-11T07:00:28.260Z,12.90
2023-03-11T07:02:58.769Z,14.00
2023-03-11T07:05:26.552Z,15.50
2023-03-11T07:07:59.300Z,16.20
2023-03-11T07:10:26.988Z,16.70
2023-03-11T07:12:54.339Z,16.70
2023-03-11T07:15:21.922Z,17.00
2023-03-11T07:17:49.313Z,17.10
2023-03-11T07:20:17.685Z,17.30
2023-03-11T07:22:45.196Z,17.30
2023-03-11T07:25:12.583Z,18.10
2023-03-11T07:27:39.883Z,18.40
2023-03-11T07:30:07.966Z,18.10
2023-03-11T07:32:35.417Z,19.00
2023-03-11T07:35:02.869Z,18.80
2023-03-11T07:37:30.277Z,19.50
2023-03-11T07:39:57.575Z,19.70
2023-03-11T07:42:24.951Z,18.70
2023-03-11T07:44:54.745Z,17.60
2023-03-11T07:47:22.099Z,16.30
2023-03-11T07:49:49.497Z,15.40
2023-03-11T07:52:16.847Z,15.10
2023-03-11T07:54:45.349Z,14.60
2023-03-11T07:57:17.028Z,14.50
2023-03-11T07:59:44.313Z,14.30
2023-03-11T08:02:11.978Z,14.10
2023-03-11T08:04:39.497Z,14.20
2023-03-11T08:07:06.814Z,14.30
2023-03-11T08:09:36.333Z,14.40
2023-03-11T08:12:03.745Z,14.10
2023-03-11T08:14:31.129Z,13.80
2023-03-11T08:16:58.458Z,14.10
2023-03-11T08:19:25.844Z,14.30
2023-03-11T08:21:53.177Z,14.10
2023-03-11T08:24:20.532Z,13.90
2023-03-11T08:26:47.831Z,14.20
2023-03-11T08:29:15.220Z,14.60
2023-03-11T08:31:42.505Z,14.00
2023-03-11T08:34:11.009Z,13.70
2023-03-11T08:36:38.515Z,13.40
2023-03-11T08:39:06.227Z,13.50
2023-03-11T08:41:33.876Z,14.00
2023-03-11T08:44:01.352Z,14.20
2023-03-11T08:46:37.471Z,14.10
2023-03-11T08:49:06.208Z,13.70
2023-03-11T08:51:35.312Z,13.70
2023-03-11T08:54:04.086Z,13.60
2023-03-11T08:56:31.578Z,14.10
2023-03-11T08:58:59.584Z,15.70
2023-03-11T09:01:26.963Z,17.10
2023-03-11T09:03:54.246Z,18.70
2023-03-11T09:06:21.810Z,20.30
2023-03-11T09:08:49.890Z,20.20
2023-03-11T09:11:19.128Z,20.80
2023-03-11T09:13:46.502Z,22.90
2023-03-11T09:16:20.302Z,21.60
2023-03-11T09:18:47.779Z,21.50
2023-03-11T09:21:15.124Z,22.30
2023-03-11T09:23:44.346Z,22.70
2023-03-11T09:26:13.080Z,22.50
2023-03-11T09:28:41.135Z,21.40
2023-03-11T09:31:08.933Z,22.40
2023-03-11T09:33:40.906Z,22.20
2023-03-11T09:36:12.412Z,23.40
2023-03-11T09:38:39.813Z,22.50
2023-03-11T09:41:25.665Z,21.90
2023-03-11T09:44:20.079Z,22.10
2023-03-11T09:47:05.858Z,21.00
2023-03-11T09:49:54.129Z,20.50
2023-03-11T09:52:30.377Z,19.30
2023-03-11T09:54:59.832Z,21.20
2023-03-11T09:57:32.119Z,21.30
2023-03-11T10:00:04.282Z,22.50
2023-03-11T10:02:41.656Z,23.90
2023-03-11T10:05:16.925Z,21.90
2023-03-11T10:07:51.726Z,21.50
2023-03-11T10:10:19.096Z,22.60
2023-03-11T10:13:20.929Z,18.40
2023-03-11T10:16:23.032Z,17.60
2023-03-11T10:19:10.548Z,16.80
2023-03-11T10:22:07.005Z,16.50
2023-03-11T10:24:40.885Z,18.00
2023-03-11T10:27:27.506Z,18.10
2023-03-11T10:30:06.234Z,17.70
2023-03-11T10:32:36.892Z,17.00
2023-03-11T10:35:21.033Z,16.50
2023-03-11T10:38:01.020Z,16.80
2023-03-11T10:40:34.942Z,16.70
2023-03-11T10:43:07.316Z,16.20
2023-03-11T10:45:41.301Z,16.80
2023-03-11T10:48:14.564Z,16.50
2023-03-11T10:50:57.016Z,16.40
2023-03-11T10:53:25.631Z,15.90
2023-03-11T10:55:55.217Z,15.80
2023-03-11T10:58:28.276Z,16.70
2023-03-11T11:01:16.742Z,16.70
2023-03-11T11:03:49.974Z,16.60
2023-03-11T11:06:37.728Z,16.60
2023-03-11T11:09:09.099Z,17.20
2023-03-11T11:11:36.560Z,17.30
2023-03-11T11:14:03.905Z,18.30
2023-03-11T11:16:34.283Z,17.60
2023-03-11T11:19:08.479Z,16.70
2023-03-11T11:21:50.825Z,17.30
2023-03-11T11:24:25.279Z,17.80
2023-03-11T11:27:27.464Z,18.50
2023-03-11T11:30:24.566Z,17.30
2023-03-11T11:32:55.797Z,18.20
2023-03-11T11:35:25.105Z,17.70
2023-03-11T11:37:55.653Z,17.40
2023-03-11T11:40:32.315Z,18.60
2023-03-11T11:43:12.326Z,19.30
2023-03-11T11:46:02.196Z,19.00
2023-03-11T11:48:37.313Z,20.30
2023-03-11T11:51:30.812Z,19.00
2023-03-11T11:54:05.189Z,18.80
2023-03-11T11:56:32.696Z,19.40
2023-03-11T11:59:00.917Z,19.70
2023-03-11T12:01:45.661Z,20.90
2023-03-11T12:04:31.612Z,21.30
2023-03-11T12:07:15.143Z,21.70
2023-03-11T12:09:58.123Z,22.10
2023-03-11T12:12:37.028Z,22.10
2023-03-11T12:15:18.978Z,20.70
2023-03-11T12:17:47.551Z,19.80
2023-03-11T12:20:34.861Z,20.90
2023-03-11T12:23:05.173Z,18.80
2023-03-11T12:26:10.101Z,20.50
2023-03-11T12:28:48.175Z,20.40
2023-03-11T12:31:16.313Z,19.20
2023-03-11T12:33:47.456Z,19.30
2023-03-11T12:36:23.614Z,19.70
2023-03-11T12:38:51.985Z,19.80
2023-03-11T12:41:38.837Z,20.50
2023-03-11T12:44:22.585Z,20.30
2023-03-11T12:46:59.164Z,20.70
2023-03-11T12:49:32.301Z,20.40
2023-03-11T12:52:11.688Z,19.70
2023-03-11T12:54:50.892Z,19.10
2023-03-11T12:57:18.566Z,19.60
2023-03-11T13:00:09.705Z,19.40
2023-03-11T13:03:14.683Z,19.10
2023-03-11T13:05:59.226Z,20.00
2023-03-11T13:08:28.385Z,19.50
2023-03-11T13:10:56.523Z,19.40
2023-03-11T13:13:39.268Z,19.20
2023-03-11T13:16:12.812Z,19.60
2023-03-11T13:18:41.668Z,20.50
2023-03-11T13:21:38.232Z,21.50
2023-03-11T13:24:25.844Z,21.70
2023-03-11T13:26:59.387Z,21.00
2023-03-11T13:29:43.968Z,21.30
2023-03-11T13:32:43.354Z,20.80
2023-03-11T13:35:28.555Z,21.40
2023-03-11T13:38:12.861Z,21.80
2023-03-11T13:40:45.402Z,22.10
2023-03-11T13:43:19.046Z,21.90
2023-03-11T13:46:28.591Z,21.80
2023-03-11T13:49:05.062Z,21.50
2023-03-11T13:51:43.405Z,20.70
2023-03-11T13:54:20.044Z,21.00
2023-03-11T13:56:54.899Z,21.30
2023-03-11T13:59:30.890Z,21.20
2023-03-11T14:02:13.517Z,20.40
2023-03-11T14:04:47.277Z,21.40
2023-03-11T14:07:27.776Z,20.60
2023-03-11T14:10:18.292Z,21.30
2023-03-11T14:12:46.057Z,21.40
2023-03-11T14:15:21.609Z,21.80
2023-03-11T14:17:50.414Z,21.80
2023-03-11T14:20:22.472Z,21.20
2023-03-11T14:22:52.856Z,21.70
2023-03-11T14:25:24.798Z,21.70
2023-03-11T14:27:56.275Z,21.40
2023-03-11T14:30:30.273Z,21.30
2023-03-11T14:33:22.002Z,21.60
2023-03-11T14:35:53.621Z,21.50
2023-03-11T14:38:26.453Z,21.60
2023-03-11T14:41:00.520Z,21.00
2023-03-11T14:43:33.443Z,21.00
2023-03-11T14:46:02.298Z,21.30
2023-03-11T14:48:34.961Z,21.40
2023-03-11T14:51:04.740Z,20.90
2023-03-11T14:53:51.099Z,20.40
2023-03-11T14:56:21.715Z,21.00
2023-03-11T14:59:13.962Z,21.50
2023-03-11T15:01:43.790Z,21.10
2023-03-11T15:04:14.515Z,20.10
2023-03-11T15:06:46.630Z,20.20
2023-03-11T15:09:22.938Z,20.70
2023-03-11T15:11:55.229Z,20.30
2023-03-11T15:14:26.492Z,20.40
2023-03-11T15:17:08.143Z,20.40
2023-03-11T15:19:35.570Z,21.00
2023-03-11T15:22:25.637Z,19.90
2023-03-11T15:24:56.012Z,19.70
2023-03-11T15:27:37.604Z,19.90
2023-03-11T15:30:20.273Z,20.10
2023-03-11T15:32:48.683Z,20.20
2023-03-11T15:35:21.831Z,20.30
2023-03-11T15:37:51.809Z,20.70
2023-03-11T15:40:23.431Z,20.60
2023-03-11T15:43:33.997Z,20.30
2023-03-11T15:46:03.059Z,19.50
2023-03-11T15:48:31.276Z,20.10
2023-03-11T15:51:00.447Z,20.00
2023-03-11T15:53:30.110Z,20.20
2023-03-11T15:56:06.859Z,19.50
2023-03-11T15:58:35.685Z,19.70
2023-03-11T16:01:03.273Z,19.90
2023-03-11T16:03:31.573Z,19.90
2023-03-11T16:05:59.157Z,19.50
2023-03-11T16:08:26.400Z,19.10
2023-03-11T16:10:53.703Z,19.10
2023-03-11T16:13:21.008Z,19.20
2023-03-11T16:15:48.402Z,19.20
2023-03-11T16:18:15.977Z,18.90
2023-03-11T16:20:47.180Z,18.80
2023-03-11T16:23:23.705Z,18.70
2023-03-11T16:25:53.511Z,18.90
2023-03-11T16:28:20.856Z,18.80
2023-03-11T16:30:50.666Z,18.50
2023-03-11T16:33:18.225Z,18.40
2023-03-11T16:35:46.236Z,18.60
2023-03-11T16:38:13.755Z,18.70
2023-03-11T16:40:41.056Z,18.90
2023-03-11T16:43:10.917Z,18.50
2023-03-11T16:45:38.381Z,18.40
2023-03-11T16:48:07.238Z,18.30
2023-03-11T16:50:37.323Z,18.40
2023-03-11T16:53:05.268Z,18.40
2023-03-11T16:55:32.686Z,18.40
2023-03-11T16:58:00.168Z,18.30
2023-03-11T17:00:27.895Z,18.10
2023-03-11T17:02:55.243Z,18.10
2023-03-11T17:05:22.798Z,18.00
2023-03-11T17:08:00.664Z,18.00
2023-03-11T17:10:28.764Z,17.90
2023-03-11T17:12:56.453Z,17.90
2023-03-11T17:15:23.794Z,17.80
2023-03-11T17:17:51.561Z,17.70
2023-03-11T17:20:21.515Z,17.80
2023-03-11T17:22:49.192Z,17.60
2023-03-11T17:25:16.629Z,17.50
2023-03-11T17:27:43.988Z,17.40
2023-03-11T17:30:12.029Z,17.60
2023-03-11T17:32:39.426Z,17.60
2023-03-11T17:35:07.725Z,17.60
2023-03-11T17:37:35.363Z,17.50
2023-03-11T17:40:02.846Z,17.50
2023-03-11T17:42:30.264Z,17.50
2023-03-11T17:44:57.979Z,17.50
2023-03-11T17:47:28.252Z,17.30
2023-03-11T17:49:55.735Z,17.20
2023-03-11T17:52:23.077Z,17.30
2023-03-11T17:54:50.608Z,17.20
2023-03-11T17:57:17.922Z,17.30
2023-03-11T17:59:45.422Z,17.30
2023-03-11T18:02:14.323Z,17.30
2023-03-11T18:04:45.879Z,17.10
2023-03-11T18:07:13.419Z,17.10
2023-03-11T18:09:41.064Z,17.30
2023-03-11T18:12:08.462Z,17.20
2023-03-11T18:14:36.838Z,17.10
2023-03-11T18:17:04.341Z,17.00
2023-03-11T18:19:31.630Z,17.00
2023-03-11T18:21:58.993Z,16.80
2023-03-11T18:24:26.327Z,17.00
2023-03-11T18:26:53.731Z,16.90
2023-03-11T18:29:21.138Z,16.90
2023-03-11T18:31:48.753Z,16.90
2023-03-11T18:34:16.136Z,17.10
2023-03-11T18:36:43.452Z,17.10
2023-03-11T18:39:12.656Z,16.90
2023-03-11T18:41:40.589Z,16.70
2023-03-11T18:44:08.029Z,16.60
2023-03-11T18:46:35.613Z,16.70
2023-03-11T18:49:04.149Z,16.60
2023-03-11T18:51:32.477Z,16.60
2023-03-11T18:54:00.475Z,16.60
2023-03-11T18:56:31.001Z,16.40
2023-03-11T18:59:00.150Z,16.50
2023-03-11T19:01:28.345Z,16.50
2023-03-11T19:03:57.726Z,16.50
2023-03-11T19:06:27.216Z,16.70
2023-03-11T19:08:54.933Z,16.60
2023-03-11T19:11:23.935Z,16.60
2023-03-11T19:13:52.044Z,16.50
2023-03-11T19:16:22.390Z,16.30
2023-03-11T19:18:50.377Z,16.20
2023-03-11T19:21:18.162Z,16.10
2023-03-11T19:23:45.967Z,16.00
2023-03-11T19:26:13.575Z,16.00
2023-03-11T19:28:41.052Z,15.70
2023-03-11T19:31:08.485Z,15.70
2023-03-11T19:33:36.303Z,15.70
2023-03-11T19:36:05.658Z,15.70
2023-03-11T19:38:33.487Z,15.70
2023-03-11T19:41:03.889Z,15.60
2023-03-11T19:43:31.578Z,15.50
2023-03-11T19:45:59.132Z,15.60
2023-03-11T19:48:26.535Z,15.40
2023-03-11T19:50:54.471Z,15.40
2023-03-11T19:53:23.193Z,15.30
2023-03-11T19:55:53.204Z,15.30
2023-03-11T19:58:21.685Z,15.40
2023-03-11T20:00:49.143Z,15.20
2023-03-11T20:03:17.232Z,15.40
2023-03-11T20:05:46.904Z,15.50
2023-03-11T20:08:16.536Z,15.40
2023-03-11T20:10:46.495Z,15.50
2023-03-11T20:13:14.857Z,15.60
2023-03-11T20:15:42.422Z,15.70
2023-03-11T20:18:10.102Z,15.60
2023-03-11T20:20:39.190Z,15.50
2023-03-11T20:23:06.663Z,15.60
2023-03-11T20:25:34.922Z,15.40
2023-03-11T20:28:02.488Z,15.40
2023-03-11T20:30:29.942Z,15.50
2023-03-11T20:32:57.307Z,15.50
2023-03-11T20:35:24.681Z,15.60
2023-03-11T20:37:52.100Z,15.70
2023-03-11T20:40:19.747Z,15.50
2023-03-11T20:42:47.433Z,15.60
2023-03-11T20:45:21.383Z,15.70
2023-03-11T20:47:50.065Z,15.60
2023-03-11T20:50:17.516Z,15.50
2023-03-11T20:52:45.022Z,15.50
2023-03-11T20:55:13.286Z,15.20
2023-03-11T20:57:40.901Z,15.30
2023-03-11T21:00:11.878Z,15.30
2023-03-11T21:02:41.119Z,15.20
2023-03-11T21:05:09.852Z,15.30
2023-03-11T21:07:37.310Z,15.30
2023-03-11T21:10:08.259Z,15.10
2023-03-11T21:12:35.746Z,15.20
2023-03-11T21:15:04.504Z,15.30
2023-03-11T21:17:33.077Z,15.20
2023-03-11T21:20:00.602Z,15.20
2023-03-11T21:22:28.784Z,15.20
2023-03-11T21:24:56.129Z,15.20
2023-03-11T21:27:27.248Z,15.20
2023-03-11T21:29:59.076Z,15.10
2023-03-11T21:32:28.116Z,15.10
2023-03-11T21:34:57.435Z,14.90
2023-03-11T21:37:26.150Z,14.80
2023-03-11T21:39:54.544Z,14.80
2023-03-11T21:42:22.894Z,15.10
2023-03-11T21:44:51.706Z,14.90
2023-03-11T21:47:20.115Z,14.80
2023-03-11T21:49:47.682Z,15.00
2023-03-11T21:52:15.105Z,14.90
2023-03-11T21:54:42.487Z,14.90
2023-03-11T21:57:11.463Z,14.90
2023-03-11T21:59:39.089Z,14.70
2023-03-11T22:02:06.758Z,14.80
2023-03-11T22:04:34.222Z,14.80
2023-03-11T22:07:01.819Z,14.70
2023-03-11T22:09:29.385Z,14.80
2023-03-11T22:11:56.772Z,14.70
2023-03-11T22:14:24.789Z,14.70
2023-03-11T22:16:52.655Z,14.70
2023-03-11T22:19:20.205Z,14.60
2023-03-11T22:21:49.083Z,14.80
2023-03-11T22:24:16.824Z,14.60
2023-03-11T22:26:44.145Z,14.60
2023-03-11T22:29:13.566Z,14.50
2023-03-11T22:31:41.420Z,14.60
2023-03-11T22:34:08.808Z,14.50
2023-03-11T22:36:36.184Z,14.60
2023-03-11T22:39:04.968Z,14.70
2023-03-11T22:41:33.105Z,14.80
2023-03-11T22:44:00.445Z,14.70
2023-03-11T22:46:27.832Z,14.80
2023-03-11T22:48:55.266Z,14.90
2023-03-11T22:51:22.959Z,14.90
2023-03-11T22:53:50.349Z,14.70
2023-03-11T22:56:18.325Z,14.50
2023-03-11T22:58:46.048Z,14.70
2023-03-11T23:01:13.595Z,14.70
2023-03-11T23:03:43.061Z,14.50
2023-03-11T23:06:13.617Z,14.60
2023-03-11T23:08:40.978Z,14.60
2023-03-11T23:11:11.617Z,14.60
2023-03-11T23:13:40.126Z,14.70
2023-03-11T23:16:11.158Z,14.60
2023-03-11T23:18:39.105Z,14.50
2023-03-11T23:21:16.886Z,14.60
2023-03-11T23:23:44.562Z,14.70
2023-03-11T23:26:12.735Z,14.50
2023-03-11T23:28:41.251Z,14.70
2023-03-11T23:31:10.523Z,14.80
2023-03-11T23:33:38.609Z,14.70
2023-03-11T23:36:11.668Z,14.70
2023-03-11T23:38:39.421Z,14.50
2023-03-11T23:41:15.625Z,14.40
2023-03-11T23:43:43.061Z,14.40
2023-03-11T23:46:10.782Z,14.70
2023-03-11T23:48:38.682Z,14.70
2023-03-11T23:51:08.244Z,14.70
2023-03-11T23:53:36.224Z,14.60
2023-03-11T23:56:09.724Z,14.60
2023-03-11T23:58:37.025Z,14.60
